Time;durP1;ratioP1;P1;durP2;ratioP2;P2;SDS_P1;SDS_P2;PMS_P1;PMS_P2;Temp;Humidity;BMP_temperature;BMP_pressure;BME280_temperature;BME280_humidity;BME280_pressure;Samples;Min_cycle;Max_cycle;Signal;HPM_P1;HPM_P2
2023/08/22 00:01:56;;;;;;;10.73;6.80;;;;;;;18.92;100.00;102148.19;5031444;28;20048;-64
2023/08/22 00:04:21;;;;;;;16.48;7.13;;;;;;;18.90;100.00;102150.03;5029792;28;20029;-64
2023/08/22 00:06:47;;;;;;;15.30;7.03;;;;;;;18.88;100.00;102149.28;5030399;28;20071;-64
2023/08/22 00:09:12;;;;;;;16.17;7.78;;;;;;;18.88;100.00;102151.06;5031359;28;20552;-64
2023/08/22 00:11:37;;;;;;;12.35;7.57;;;;;;;18.86;100.00;102136.91;5031739;28;20061;-65
2023/08/22 00:14:03;;;;;;;14.35;6.88;;;;;;;18.75;100.00;102135.63;5030893;28;20116;-65
2023/08/22 00:16:29;;;;;;;14.57;7.75;;;;;;;18.71;100.00;102139.41;5028715;28;20033;-64
2023/08/22 00:18:55;;;;;;;14.02;7.93;;;;;;;18.71;100.00;102133.19;5030872;28;20136;-65
2023/08/22 00:21:20;;;;;;;15.27;7.18;;;;;;;18.69;100.00;102134.13;5032107;28;20109;-62
2023/08/22 00:23:46;;;;;;;13.45;7.72;;;;;;;18.69;100.00;102122.56;5031936;28;20045;-64
2023/08/22 00:26:11;;;;;;;12.98;7.32;;;;;;;18.66;100.00;102123.59;5030308;28;20036;-65
2023/08/22 00:28:36;;;;;;;19.27;8.60;;;;;;;18.66;100.00;102120.09;5029966;28;20040;-63
2023/08/22 00:31:02;;;;;;;14.65;8.13;;;;;;;18.65;100.00;102129.88;5030289;28;20472;-65
2023/08/22 00:33:27;;;;;;;13.13;7.88;;;;;;;18.62;100.00;102121.16;5035331;28;20032;-65
2023/08/22 00:35:53;;;;;;;20.08;7.97;;;;;;;18.61;100.00;102112.28;5030374;28;20029;-63
2023/08/22 00:38:18;;;;;;;17.75;8.75;;;;;;;18.60;100.00;102113.19;5029517;28;20021;-63
2023/08/22 00:40:43;;;;;;;18.90;8.50;;;;;;;18.60;100.00;102107.88;5030453;28;20071;-63
2023/08/22 00:43:09;;;;;;;13.38;7.75;;;;;;;18.59;100.00;102100.81;5030780;28;20096;-64
2023/08/22 00:45:34;;;;;;;13.55;7.95;;;;;;;18.57;100.00;102100.00;5030153;28;20040;-62
2023/08/22 00:47:59;;;;;;;21.10;7.90;;;;;;;18.54;100.00;102101.03;5028547;28;20060;-63
2023/08/22 00:50:25;;;;;;;10.95;7.43;;;;;;;18.54;100.00;102100.16;5029364;28;20064;-63
2023/08/22 00:52:50;;;;;;;19.48;7.55;;;;;;;18.49;100.00;102099.53;5030598;28;20032;-65
2023/08/22 00:55:16;;;;;;;14.55;7.78;;;;;;;18.44;100.00;102102.41;5069981;28;20032;-62
2023/08/22 00:57:41;;;;;;;16.52;7.43;;;;;;;18.48;100.00;102098.66;5049748;28;20040;-64
2023/08/22 01:00:10;;;;;;;13.40;7.82;;;;;;;18.48;100.00;102095.97;5049094;28;20025;-63
2023/08/22 01:02:35;;;;;;;15.20;8.07;;;;;;;18.51;100.00;102086.97;5049033;28;20040;-62
2023/08/22 01:05:01;;;;;;;14.02;7.45;;;;;;;18.48;100.00;102079.97;5073766;23;20058;-64
2023/08/22 01:07:33;;;;;;;13.63;7.22;;;;;;;18.50;100.00;102082.56;4985488;28;20112;-63
2023/08/22 01:10:15;;;;;;;19.98;8.68;;;;;;;18.49;100.00;102080.84;4972559;28;20027;-63
2023/08/22 01:12:49;;;;;;;12.40;6.43;;;;;;;18.47;100.00;102083.59;4969638;28;20061;-63
2023/08/22 01:15:28;;;;;;;15.02;7.28;;;;;;;18.43;100.00;102085.50;4969052;28;20038;-65
2023/08/22 01:17:56;;;;;;;15.55;7.45;;;;;;;18.41;100.00;102084.75;4970642;28;20358;-65
2023/08/22 01:20:22;;;;;;;15.80;7.45;;;;;;;18.35;100.00;102085.03;4972047;28;20022;-65
2023/08/22 01:22:48;;;;;;;14.35;8.82;;;;;;;18.32;100.00;102085.16;4971500;28;20085;-64
2023/08/22 01:25:13;;;;;;;17.90;8.23;;;;;;;18.28;100.00;102088.94;4970878;28;20014;-64
2023/08/22 01:28:02;;;;;;;19.77;8.80;;;;;;;18.30;100.00;102092.38;4971559;28;20473;-64
2023/08/22 01:30:30;;;;;;;;;;;;;;;18.26;100.00;102102.34;4969196;28;20138;-63
2023/08/22 01:32:57;;;;;;;15.27;8.55;;;;;;;18.22;100.00;102099.88;4984671;28;19914;-66
2023/08/22 01:35:24;;;;;;;12.70;7.72;;;;;;;18.18;100.00;102097.34;4985887;28;20019;-65
2023/08/22 01:37:51;;;;;;;14.70;8.15;;;;;;;18.13;100.00;102094.03;4971542;28;20180;-65
2023/08/22 01:40:17;;;;;;;13.73;8.63;;;;;;;18.11;100.00;102097.69;4969555;28;20587;-64
2023/08/22 01:42:42;;;;;;;14.45;8.88;;;;;;;18.09;100.00;102097.72;4968102;28;20030;-65
2023/08/22 01:45:08;;;;;;;18.33;8.93;;;;;;;18.05;100.00;102094.38;4970661;28;20070;-65
2023/08/22 01:47:35;;;;;;;26.42;9.30;;;;;;;18.03;100.00;102098.03;4971158;28;20077;-64
2023/08/22 01:50:02;;;;;;;19.88;9.38;;;;;;;18.02;100.00;102104.28;4970841;28;20377;-64
2023/08/22 01:52:27;;;;;;;18.60;9.93;;;;;;;18.03;100.00;102095.38;4969226;28;20019;-64
2023/08/22 01:54:53;;;;;;;18.40;9.05;;;;;;;18.04;100.00;102089.97;4970198;28;20038;-64
2023/08/22 01:57:18;;;;;;;16.92;9.13;;;;;;;18.04;100.00;102095.31;4968664;28;20033;-63
2023/08/22 01:59:44;;;;;;;21.70;10.35;;;;;;;18.01;100.00;102083.91;4971515;28;20377;-63
2023/08/22 02:02:09;;;;;;;20.40;10.82;;;;;;;18.01;100.00;102094.56;4968804;28;20102;-64
2023/08/22 02:04:34;;;;;;;17.70;9.65;;;;;;;17.94;100.00;102086.84;4969194;28;20106;-63
2023/08/22 02:07:00;;;;;;;19.48;9.25;;;;;;;17.92;100.00;102088.72;4968791;28;20369;-64
2023/08/22 02:09:25;;;;;;;19.02;9.75;;;;;;;17.89;100.00;102093.31;4970951;28;20030;-63
2023/08/22 02:11:52;;;;;;;17.65;10.13;;;;;;;17.84;100.00;102088.19;4970671;28;20462;-64
2023/08/22 02:14:17;;;;;;;22.65;10.18;;;;;;;17.79;100.00;102095.53;4969536;28;20027;-64
2023/08/22 02:16:42;;;;;;;17.10;10.05;;;;;;;17.78;100.00;102085.78;4968872;28;20031;-63
2023/08/22 02:19:08;;;;;;;18.10;9.48;;;;;;;17.74;100.00;102092.19;4970204;28;20030;-65
2023/08/22 02:21:33;;;;;;;19.17;9.95;;;;;;;17.68;100.00;102083.56;4971306;28;20492;-63
2023/08/22 02:23:58;;;;;;;12.48;8.38;;;;;;;17.70;100.00;102074.63;4970200;28;20370;-63
2023/08/22 02:26:26;;;;;;;18.50;9.90;;;;;;;17.68;100.00;102077.34;4968506;28;20026;-65
2023/08/22 02:28:52;;;;;;;17.02;9.88;;;;;;;17.65;100.00;102073.03;4970380;28;20027;-65
2023/08/22 02:31:17;;;;;;;13.93;8.80;;;;;;;17.66;100.00;102076.53;4970343;28;20027;-65
2023/08/22 02:33:43;;;;;;;14.32;8.98;;;;;;;17.67;100.00;102078.31;4969530;28;20381;-65
2023/08/22 02:36:08;;;;;;;14.15;9.30;;;;;;;17.67;100.00;102070.31;4969109;28;20055;-65
2023/08/22 02:38:34;;;;;;;19.95;9.88;;;;;;;17.70;100.00;102066.63;4969305;28;20031;-65
2023/08/22 02:40:59;;;;;;;16.45;8.85;;;;;;;17.72;100.00;102059.41;4969197;28;20062;-63
2023/08/22 02:43:24;;;;;;;13.07;8.98;;;;;;;17.66;100.00;102056.09;4971574;28;20026;-63
2023/08/22 02:45:50;;;;;;;21.45;8.88;;;;;;;17.61;100.00;102060.75;4969146;28;20026;-65
2023/08/22 02:48:15;;;;;;;14.52;8.38;;;;;;;17.58;100.00;102052.91;4968558;28;20034;-63
2023/08/22 02:50:40;;;;;;;14.77;8.60;;;;;;;17.55;100.00;102058.38;4969491;28;20023;-64
2023/08/22 02:53:06;;;;;;;14.35;8.80;;;;;;;17.53;100.00;102057.56;4971350;28;20041;-64
2023/08/22 02:55:31;;;;;;;18.65;9.27;;;;;;;17.48;100.00;102062.22;4969447;28;20087;-63
2023/08/22 02:57:57;;;;;;;16.75;9.13;;;;;;;17.45;100.00;102059.72;4968843;28;20026;-65
2023/08/22 03:00:22;;;;;;;15.18;8.57;;;;;;;17.41;100.00;102062.53;4969362;28;20077;-66
2023/08/22 03:02:48;;;;;;;12.60;8.60;;;;;;;17.46;100.00;102064.97;4970665;28;20031;-64
2023/08/22 03:05:13;;;;;;;13.65;8.15;;;;;;;17.41;100.00;102061.66;4970358;28;20078;-64
2023/08/22 03:07:39;;;;;;;17.30;8.30;;;;;;;17.38;100.00;102052.00;4968500;28;20038;-64
2023/08/22 03:10:06;;;;;;;15.23;8.07;;;;;;;17.34;100.00;102047.72;4972334;28;20030;-64
2023/08/22 03:12:31;;;;;;;11.75;7.53;;;;;;;17.35;100.00;102046.81;4974927;28;20019;-65
2023/08/22 03:14:56;;;;;;;12.98;7.43;;;;;;;17.34;100.00;102047.72;4974563;28;20034;-65
2023/08/22 03:17:22;;;;;;;11.80;8.23;;;;;;;17.33;100.00;102051.31;4972332;28;20034;-63
2023/08/22 03:19:47;;;;;;;14.57;7.50;;;;;;;17.35;100.00;102053.91;4971857;28;20068;-64
2023/08/22 03:22:12;;;;;;;12.18;8.38;;;;;;;17.39;100.00;102048.41;4973849;28;20026;-65
2023/08/22 03:24:38;;;;;;;14.43;7.60;;;;;;;17.35;100.00;102046.81;4973356;28;20074;-64
2023/08/22 03:27:04;;;;;;;13.35;7.38;;;;;;;17.40;100.00;102050.13;4972292;28;20483;-65
2023/08/22 03:29:29;;;;;;;13.35;8.30;;;;;;;17.40;100.00;102044.78;4986837;28;20039;-65
2023/08/22 03:31:58;;;;;;;12.95;7.70;;;;;;;17.41;100.00;102051.00;4971697;28;20492;-65
2023/08/22 03:34:23;;;;;;;16.10;7.85;;;;;;;17.46;100.00;102054.31;4975451;28;20042;-63
2023/08/22 03:36:48;;;;;;;15.27;7.18;;;;;;;17.45;100.00;102055.25;4972208;28;20070;-63
2023/08/22 03:39:14;;;;;;;15.25;7.18;;;;;;;17.46;100.00;102042.81;4971177;28;20105;-64
2023/08/22 03:41:39;;;;;;;12.45;7.15;;;;;;;17.46;100.00;102042.81;4973514;28;20440;-65
2023/08/22 03:44:05;;;;;;;12.65;7.50;;;;;;;17.52;100.00;102045.19;4972281;28;20118;-64
2023/08/22 03:46:30;;;;;;;10.52;6.63;;;;;;;17.48;100.00;102033.78;4970665;28;20114;-64
2023/08/22 03:48:55;;;;;;;14.15;6.97;;;;;;;17.42;100.00;102031.41;4972242;28;20034;-65
2023/08/22 03:51:21;;;;;;;16.02;7.05;;;;;;;17.47;100.00;102033.88;4974057;28;20363;-63
2023/08/22 03:53:46;;;;;;;12.23;6.75;;;;;;;17.44;100.00;102024.22;4972219;28;20059;-64
2023/08/22 03:56:12;;;;;;;14.85;8.10;;;;;;;17.38;100.00;102029.81;4971301;28;20396;-63
2023/08/22 03:58:37;;;;;;;11.30;7.15;;;;;;;17.39;100.00;102019.09;4972146;28;20457;-64
2023/08/22 04:01:03;;;;;;;15.63;7.15;;;;;;;17.33;100.00;102013.19;4973116;28;20112;-64
2023/08/22 04:03:29;;;;;;;11.75;7.28;;;;;;;17.28;100.00;102021.38;4972136;28;20041;-63
2023/08/22 04:05:55;;;;;;;17.55;7.70;;;;;;;17.29;100.00;102026.63;4970490;28;20047;-64
2023/08/22 04:08:20;;;;;;;13.57;7.72;;;;;;;17.29;100.00;102023.97;4972105;28;20052;-64
2023/08/22 04:10:45;;;;;;;12.63;7.30;;;;;;;17.25;100.00;102018.84;4973770;28;20528;-65
2023/08/22 04:13:11;;;;;;;15.35;7.45;;;;;;;17.27;100.00;102019.63;4972540;28;20031;-65
2023/08/22 04:15:39;;;;;;;11.90;6.28;;;;;;;17.22;100.00;102024.28;4970495;28;20030;-63
2023/08/22 04:18:04;;;;;;;14.20;7.00;;;;;;;17.23;100.00;102023.34;4971337;28;20496;-64
2023/08/22 04:20:30;;;;;;;15.57;6.40;;;;;;;17.21;100.00;102028.75;4973176;28;20038;-64
2023/08/22 04:22:55;;;;;;;9.10;6.90;;;;;;;17.20;100.00;102026.16;4971927;28;20027;-63
2023/08/22 04:25:20;;;;;;;15.80;6.60;;;;;;;17.16;100.00;102034.25;4972188;28;20073;-64
2023/08/22 04:27:46;;;;;;;14.48;6.95;;;;;;;17.21;100.00;102033.19;4973032;28;20114;-65
2023/08/22 04:30:11;;;;;;;13.60;6.70;;;;;;;17.22;100.00;102038.44;4973199;28;20039;-65
2023/08/22 04:32:37;;;;;;;14.38;6.95;;;;;;;17.26;100.00;102036.53;4986449;28;20030;-64
2023/08/22 04:35:02;;;;;;;15.25;7.18;;;;;;;17.25;100.00;102035.66;4991266;28;20058;-65
2023/08/22 04:37:28;;;;;;;14.38;7.28;;;;;;;17.30;100.00;102039.00;4991331;28;20105;-64
2023/08/22 04:39:54;;;;;;;14.05;6.43;;;;;;;17.34;100.00;102034.41;4991849;28;20026;-64
2023/08/22 04:42:19;;;;;;;15.63;7.05;;;;;;;17.42;100.00;102042.94;4977156;28;20513;-64
2023/08/22 04:44:44;;;;;;;15.32;6.68;;;;;;;17.41;100.00;102040.34;4985850;28;20117;-65
2023/08/22 04:47:10;;;;;;;14.02;6.25;;;;;;;17.49;100.00;102048.00;4972292;28;20477;-64
2023/08/22 04:49:35;;;;;;;19.05;7.60;;;;;;;17.51;100.00;102038.13;4971860;28;20086;-64
2023/08/22 04:52:00;;;;;;;9.90;6.35;;;;;;;17.49;100.00;102032.00;4970608;28;20034;-64
2023/08/22 04:54:26;;;;;;;15.13;6.90;;;;;;;17.49;100.00;102032.84;4970493;28;20023;-65
2023/08/22 04:56:51;;;;;;;12.35;6.28;;;;;;;17.48;100.00;102031.13;4970638;28;20035;-64
2023/08/22 04:59:17;;;;;;;14.65;6.35;;;;;;;17.46;100.00;102027.66;4971464;28;20102;-65
2023/08/22 05:01:42;;;;;;;15.88;6.88;;;;;;;17.46;100.00;102026.81;4971790;28;20038;-64
2023/08/22 05:04:07;;;;;;;14.15;6.75;;;;;;;17.39;100.00;102021.75;4970465;28;20030;-64
2023/08/22 05:06:33;;;;;;;15.88;6.43;;;;;;;17.39;100.00;102020.88;4997209;28;20053;-63
2023/08/22 05:08:58;;;;;;;16.90;7.53;;;;;;;17.42;100.00;102016.28;4990216;28;20036;-64
2023/08/22 05:11:23;;;;;;;11.73;5.85;;;;;;;17.44;100.00;102018.88;4974075;28;20023;-64
2023/08/22 05:13:49;;;;;;;12.88;7.32;;;;;;;17.42;100.00;102021.63;4971029;28;20101;-65
2023/08/22 05:16:14;;;;;;;13.32;7.07;;;;;;;17.43;100.00;102022.50;4969227;28;20500;-64
2023/08/22 05:18:39;;;;;;;14.52;6.78;;;;;;;17.51;100.00;102033.66;4977756;28;20034;-64
2023/08/22 05:21:06;;;;;;;16.92;7.18;;;;;;;17.54;100.00;102035.31;4977377;28;20421;-64
2023/08/22 05:23:31;;;;;;;11.85;6.82;;;;;;;17.57;100.00;102032.53;4970529;28;20023;-64
2023/08/22 05:25:57;;;;;;;15.43;6.90;;;;;;;17.62;100.00;102034.97;4970307;28;20038;-64
2023/08/22 05:28:22;;;;;;;13.93;6.90;;;;;;;17.70;100.00;102030.16;4970422;28;20041;-65
2023/08/22 05:30:47;;;;;;;10.88;6.97;;;;;;;17.75;100.00;102033.50;4971165;28;20023;-65
2023/08/22 05:33:13;;;;;;;11.30;6.63;;;;;;;17.83;100.00;102049.16;4969726;28;20144;-65
2023/08/22 05:35:38;;;;;;;10.70;6.72;;;;;;;17.92;100.00;102050.53;4968856;28;20027;-65
2023/08/22 05:38:03;;;;;;;13.68;6.10;;;;;;;18.00;100.00;102053.69;4980450;28;20018;-64
2023/08/22 05:40:30;;;;;;;9.10;5.85;;;;;;;18.10;100.00;102051.50;4979517;28;20057;-65
2023/08/22 05:42:55;;;;;;;9.75;5.30;;;;;;;18.17;100.00;102050.28;4970525;28;20030;-63
2023/08/22 05:45:20;;;;;;;9.35;6.10;;;;;;;18.27;100.00;102055.19;4968607;28;20035;-64
2023/08/22 05:47:46;;;;;;;12.65;5.82;;;;;;;18.35;100.00;102054.81;4969849;28;20539;-64
2023/08/22 05:50:11;;;;;;;14.45;5.97;;;;;;;18.38;100.00;102047.53;4972265;28;20019;-63
2023/08/22 05:52:36;;;;;;;12.82;6.65;;;;;;;18.50;100.00;102055.88;4969961;28;20490;-64
2023/08/22 05:55:03;;;;;;;13.30;7.03;;;;;;;18.58;100.00;102051.03;4968991;28;20492;-65
2023/08/22 05:57:29;;;;;;;15.90;6.97;;;;;;;18.71;100.00;102050.41;4968000;28;20132;-65
2023/08/22 05:59:54;;;;;;;12.63;7.10;;;;;;;18.78;100.00;102049.22;4970020;28;20743;-63
2023/08/22 06:02:19;;;;;;;17.48;7.10;;;;;;;18.91;100.00;102055.63;4968707;28;20027;-63
2023/08/22 06:04:45;;;;;;;9.23;5.80;;;;;;;19.10;100.00;102057.41;4985324;28;20109;-65
2023/08/22 06:07:11;;;;;;;16.88;6.28;;;;;;;19.33;100.00;102058.06;4987889;28;20037;-63
2023/08/22 06:09:36;;;;;;;11.75;7.30;;;;;;;19.48;100.00;102056.41;4985869;28;20740;-64
2023/08/22 06:12:02;;;;;;;14.20;6.18;;;;;;;19.65;100.00;102044.78;4970759;28;20019;-63
2023/08/22 06:14:29;;;;;;;15.23;6.72;;;;;;;19.60;100.00;102044.19;4986023;28;20035;-63
2023/08/22 06:16:55;;;;;;;12.93;6.03;;;;;;;19.73;100.00;102056.88;4987154;28;20026;-65
2023/08/22 06:19:20;;;;;;;16.02;6.28;;;;;;;19.72;100.00;102050.69;4988066;28;20033;-67
2023/08/22 06:21:45;;;;;;;12.45;6.55;;;;;;;19.73;100.00;102056.88;4970028;28;20055;-65
2023/08/22 06:24:11;;;;;;;11.30;5.85;;;;;;;19.69;100.00;102054.38;4968721;28;20150;-65
2023/08/22 06:26:37;;;;;;;11.32;5.70;;;;;;;19.66;100.00;102053.69;4968635;28;20027;-64
2023/08/22 06:29:02;;;;;;;14.32;6.57;;;;;;;19.67;100.00;102058.94;4974701;28;20041;-64
2023/08/22 06:31:27;;;;;;;12.75;6.07;;;;;;;19.62;100.00;102061.00;4972678;28;20112;-64
2023/08/22 06:33:53;;;;;;;12.43;6.25;;;;;;;19.73;100.00;102059.56;4986150;28;20037;-64
2023/08/22 06:36:18;;;;;;;11.45;5.80;;;;;;;19.78;100.00;102052.16;4987724;28;20027;-63
2023/08/22 06:38:43;;;;;;;20.80;6.35;;;;;;;19.87;100.00;102048.97;4988051;28;20172;-64
2023/08/22 06:41:09;;;;;;;13.02;5.45;;;;;;;19.94;100.00;102046.84;4981482;28;20034;-63
2023/08/22 06:43:34;;;;;;;20.30;6.50;;;;;;;20.08;100.00;102044.28;4987785;28;20032;-63
2023/08/22 06:46:00;;;;;;;15.90;6.70;;;;;;;20.20;100.00;102053.44;4986808;28;20026;-65
2023/08/22 06:48:26;;;;;;;12.98;5.78;;;;;;;20.40;100.00;102051.47;4988582;28;20400;-63
2023/08/22 06:50:52;;;;;;;14.75;6.10;;;;;;;20.41;100.00;102053.19;4976534;28;20072;-64
2023/08/22 06:53:17;;;;;;;14.57;6.45;;;;;;;20.58;100.00;102064.75;4970296;28;20163;-64
2023/08/22 06:55:46;;;;;;;12.27;5.82;;;;;;;20.71;100.00;102060.41;4970053;28;20041;-64
2023/08/22 06:58:11;;;;;;;;;;;;;;;20.84;100.00;102062.38;4977806;28;20058;-63
2023/08/22 07:00:36;;;;;;;10.83;5.40;;;;;;;20.91;100.00;102068.25;4984783;28;19945;-64
2023/08/22 07:03:02;;;;;;;18.02;5.97;;;;;;;20.99;100.00;102067.81;4981101;28;20417;-64
2023/08/22 07:05:27;;;;;;;11.32;5.50;;;;;;;21.04;100.00;102073.78;4975099;28;20062;-64
2023/08/22 07:07:53;;;;;;;12.30;6.40;;;;;;;21.14;100.00;102083.00;4986059;28;20027;-64
2023/08/22 07:10:18;;;;;;;12.40;6.43;;;;;;;21.19;100.00;102086.25;4986284;28;20102;-64
2023/08/22 07:12:43;;;;;;;13.73;6.63;;;;;;;21.21;100.00;102079.00;4982129;28;20023;-64
2023/08/22 07:15:09;;;;;;;12.57;6.57;;;;;;;21.33;100.00;102087.25;4968558;28;20500;-64
2023/08/22 07:17:35;;;;;;;17.80;6.60;;;;;;;21.36;100.00;102088.88;4978005;28;20042;-64
2023/08/22 07:20:01;;;;;;;16.35;6.72;;;;;;;21.41;100.00;102095.72;4986531;28;20053;-64
2023/08/22 07:22:26;;;;;;;14.70;6.97;;;;;;;21.42;100.00;102100.09;4969422;28;20027;-64
2023/08/22 07:24:51;;;;;;;13.90;6.88;;;;;;;21.40;100.00;102102.00;4967805;28;20074;-64
2023/08/22 07:27:17;;;;;;;17.88;6.95;;;;;;;21.38;100.00;102106.63;4969297;28;20038;-65
2023/08/22 07:29:42;;;;;;;16.60;7.38;;;;;;;21.30;100.00;102104.38;4968152;28;20201;-64
2023/08/22 07:32:08;;;;;;;19.20;8.50;;;;;;;21.25;100.00;102102.94;4966364;28;20067;-64
2023/08/22 07:34:33;;;;;;;13.50;7.05;;;;;;;21.32;100.00;102107.84;4969907;28;20579;-64
2023/08/22 07:36:59;;;;;;;16.80;8.15;;;;;;;21.36;100.00;102115.69;4968362;28;20034;-65
2023/08/22 07:39:24;;;;;;;19.83;8.90;;;;;;;21.38;100.00;102120.03;4966339;28;20029;-64
2023/08/22 07:41:49;;;;;;;15.07;8.35;;;;;;;21.51;100.00;102114.78;4968340;28;20037;-65
2023/08/22 07:44:15;;;;;;;17.13;8.15;;;;;;;21.64;100.00;102117.56;4968853;28;20022;-65
2023/08/22 07:46:40;;;;;;;16.55;7.88;;;;;;;21.83;100.00;102120.00;4966283;28;20113;-64
2023/08/22 07:49:05;;;;;;;13.85;8.63;;;;;;;21.91;100.00;102122.22;4967223;28;20022;-64
2023/08/22 07:51:31;;;;;;;19.75;10.20;;;;;;;21.71;100.00;102120.75;4969710;28;20034;-64
2023/08/22 07:53:56;;;;;;;19.80;9.57;;;;;;;21.73;100.00;102123.34;4969187;28;20463;-65
2023/08/22 07:56:22;;;;;;;17.73;9.73;;;;;;;21.83;100.00;102119.16;4972273;28;20034;-65
2023/08/22 07:58:48;;;;;;;18.08;9.75;;;;;;;22.02;100.00;102120.69;4970865;28;20481;-64
2023/08/22 08:01:13;;;;;;;21.92;10.10;;;;;;;22.09;100.00;102116.66;4971418;28;20023;-63
2023/08/22 08:03:39;;;;;;;20.67;9.45;;;;;;;22.13;100.00;102106.59;4970380;28;20421;-65
2023/08/22 08:06:04;;;;;;;16.70;8.90;;;;;;;22.29;100.00;102110.03;4969805;28;20049;-64
2023/08/22 08:08:30;;;;;;;22.05;9.73;;;;;;;22.44;100.00;102110.88;4972011;28;20528;-66
2023/08/22 08:10:55;;;;;;;18.48;8.82;;;;;;;22.59;100.00;102110.84;4973536;28;20046;-66
2023/08/22 08:13:20;;;;;;;14.82;9.40;;;;;;;22.64;100.00;102100.69;4989871;28;20023;-65
2023/08/22 08:15:46;;;;;;;17.42;8.23;;;;;;;22.81;100.00;102102.25;4988659;28;20160;-66
2023/08/22 08:18:11;;;;;;;14.52;7.75;;;;;;;22.93;100.00;102097.88;4976114;28;20038;-65
2023/08/22 08:20:37;;;;;;;16.73;9.10;;;;;;;23.00;100.00;102101.03;4981465;28;20381;-65
2023/08/22 08:23:03;;;;;;;17.88;7.65;;;;;;;23.07;100.00;102106.84;4988786;28;20029;-66
2023/08/22 08:25:29;;;;;;;18.90;8.50;;;;;;;23.09;100.00;102115.66;4980140;28;20046;-65
2023/08/22 08:27:55;;;;;;;17.00;8.25;;;;;;;23.04;100.00;102115.09;4980497;28;20018;-65
2023/08/22 08:30:21;;;;;;;16.83;8.98;;;;;;;23.12;100.00;102118.16;4988304;28;20033;-65
2023/08/22 08:32:46;;;;;;;14.82;8.65;;;;;;;23.17;100.00;102107.06;4984866;28;20084;-64
2023/08/22 08:35:11;;;;;;;17.85;8.25;;;;;;;23.23;100.00;102107.53;4972140;28;20397;-65
2023/08/22 08:37:37;;;;;;;24.23;8.38;;;;;;;23.30;100.00;102101.72;4970662;28;20736;-65
2023/08/22 08:40:06;;;;;;;15.05;8.07;;;;;;;23.31;100.00;102109.69;4970656;28;20038;-64
2023/08/22 08:42:36;;;;;;;17.60;7.45;;;;;;;23.32;100.00;102108.72;4972686;28;20110;-64
2023/08/22 08:45:04;;;;;;;14.93;8.40;;;;;;;23.54;100.00;102101.88;4969769;28;20030;-64
2023/08/22 08:47:31;;;;;;;15.30;8.70;;;;;;;23.62;100.00;102095.97;4968627;28;20381;-65
2023/08/22 08:49:57;;;;;;;19.15;8.98;;;;;;;23.64;100.00;102109.31;4972138;28;20015;-66
2023/08/22 08:52:23;;;;;;;14.25;7.22;;;;;;;23.58;100.00;102107.91;4970570;28;20069;-64
2023/08/22 08:54:48;;;;;;;15.63;7.00;;;;;;;23.62;100.00;102101.34;4969343;28;20592;-65
2023/08/22 08:57:14;;;;;;;16.77;6.82;;;;;;;23.72;100.00;102110.50;4985409;28;20031;-65
2023/08/22 08:59:41;;;;;;;10.27;5.15;;;;;;;23.85;100.00;102120.41;4969947;28;20030;-65
2023/08/22 09:02:13;;;;;;;11.38;5.82;;;;;;;23.92;100.00;102119.00;4972435;28;20023;-66
2023/08/22 09:04:39;;;;;;;12.07;5.20;;;;;;;24.06;100.00;102114.44;4968747;28;20061;-65
2023/08/22 09:07:06;;;;;;;9.55;4.68;;;;;;;24.09;100.00;102127.69;4973668;28;20026;-65
2023/08/22 09:09:35;;;;;;;8.35;4.32;;;;;;;24.01;100.00;102127.38;4980584;28;20044;-63
2023/08/22 09:12:06;;;;;;;9.90;3.67;;;;;;;24.04;100.00;102117.25;4970409;28;20118;-64
2023/08/22 09:14:31;;;;;;;6.88;3.83;;;;;;;24.19;100.00;102111.75;4968724;28;20541;-64
2023/08/22 09:16:59;;;;;;;8.07;3.65;;;;;;;24.25;100.00;102108.63;4969152;28;20102;-64
2023/08/22 09:19:25;;;;;;;6.13;2.77;;;;;;;24.28;100.00;102113.78;4985326;28;20114;-64
2023/08/22 09:21:57;;;;;;;7.40;2.97;;;;;;;24.20;100.00;102110.81;4968939;28;20031;-62
2023/08/22 09:24:24;;;;;;;6.55;2.88;;;;;;;24.30;99.70;102113.69;4967654;28;20030;-63
2023/08/22 09:26:49;;;;;;;9.05;3.05;;;;;;;24.27;96.78;102108.50;4972044;28;20035;-63
2023/08/22 09:29:14;;;;;;;12.27;3.35;;;;;;;24.13;99.82;102105.00;4969018;28;20031;-64
2023/08/22 09:31:40;;;;;;;7.20;2.53;;;;;;;24.16;98.54;102126.31;4969282;28;20011;-66
2023/08/22 09:34:07;;;;;;;8.30;2.78;;;;;;;24.29;99.02;102120.03;4970305;28;20101;-63
2023/08/22 09:36:33;;;;;;;9.38;2.80;;;;;;;24.22;98.22;102125.88;4969582;28;20035;-61
2023/08/22 09:38:58;;;;;;;6.35;2.78;;;;;;;24.35;98.54;102135.75;4984067;28;20500;-61
2023/08/22 09:41:25;;;;;;;13.13;3.08;;;;;;;24.34;98.41;102128.63;4983086;28;20088;-62
2023/08/22 09:43:54;;;;;;;5.00;2.90;;;;;;;24.52;97.16;102136.34;4970425;28;20022;-62
2023/08/22 09:46:21;;;;;;;7.30;2.80;;;;;;;24.53;96.78;102135.38;4967786;28;20045;-62
2023/08/22 09:48:48;;;;;;;11.30;2.83;;;;;;;24.71;95.24;102127.78;4969192;28;20397;-63
2023/08/22 09:51:17;;;;;;;7.60;2.35;;;;;;;24.83;97.23;102134.94;4971949;28;20118;-63
2023/08/22 09:53:45;;;;;;;8.85;2.03;;;;;;;24.76;94.03;102125.59;4985748;28;20608;-64
2023/08/22 09:56:11;;;;;;;9.77;2.40;;;;;;;24.85;93.98;102135.69;4986195;28;20050;-60
2023/08/22 09:58:37;;;;;;;12.30;2.30;;;;;;;24.69;95.73;102130.59;4969539;28;20030;-64
2023/08/22 10:01:02;;;;;;;7.88;2.30;;;;;;;24.70;92.74;102132.31;4968060;28;20078;-63
2023/08/22 10:03:28;;;;;;;8.15;2.65;;;;;;;24.79;94.38;102135.28;4967828;28;20422;-62
2023/08/22 10:05:54;;;;;;;6.45;2.63;;;;;;;24.81;95.53;102127.94;4985590;28;20053;-64
2023/08/22 10:08:19;;;;;;;7.03;1.98;;;;;;;24.82;94.04;102135.03;4983929;28;20118;-64
2023/08/22 10:10:47;;;;;;;8.63;2.60;;;;;;;24.66;93.99;102128.13;4988116;28;20109;-62
2023/08/22 10:13:13;;;;;;;7.90;2.33;;;;;;;24.66;94.71;102121.84;4980496;28;20073;-62
2023/08/22 10:15:39;;;;;;;6.00;2.33;;;;;;;24.72;94.42;102126.81;4969266;28;20031;-64
2023/08/22 10:18:05;;;;;;;11.43;2.65;;;;;;;24.84;94.31;102122.31;4968673;28;20085;-63
2023/08/22 10:20:33;;;;;;;9.98;2.20;;;;;;;24.98;94.99;102124.00;4986159;28;20035;-62
2023/08/22 10:22:59;;;;;;;6.75;2.33;;;;;;;25.16;95.35;102119.03;4973301;28;20548;-63
2023/08/22 10:25:47;;;;;;;8.27;2.45;;;;;;;25.05;95.74;102127.97;4987953;28;20026;-63
2023/08/22 10:28:13;;;;;;;7.55;2.40;;;;;;;25.22;93.48;102129.38;4983755;28;20035;-63
2023/08/22 10:31:02;;;;;;;9.35;2.47;;;;;;;25.20;94.16;102131.31;4970469;28;20027;-64
2023/08/22 10:33:28;;;;;;;9.90;2.60;;;;;;;25.18;95.87;102135.09;4971037;28;20063;-62
2023/08/22 10:36:03;;;;;;;12.40;2.38;;;;;;;25.20;94.27;102125.91;4969838;28;20030;-64
2023/08/22 10:38:28;;;;;;;6.20;2.38;;;;;;;25.05;96.25;102138.75;4986064;28;20026;-64
2023/08/22 10:40:54;;;;;;;11.70;3.10;;;;;;;25.01;94.78;102133.72;4983477;28;20504;-64
2023/08/22 10:43:21;;;;;;;5.47;2.40;;;;;;;24.79;94.45;102144.22;4986675;28;20441;-64
2023/08/22 10:45:49;;;;;;;7.30;2.35;;;;;;;24.87;94.85;102132.91;4984511;28;20054;-63
2023/08/22 10:48:16;;;;;;;7.00;2.40;;;;;;;25.09;94.21;102125.88;4984308;28;20088;-64
2023/08/22 10:50:46;;;;;;;7.72;2.45;;;;;;;24.98;92.71;102127.56;4976845;28;20294;-63
2023/08/22 10:53:22;;;;;;;6.68;2.88;;;;;;;24.86;95.57;102131.13;4984147;28;20049;-64
2023/08/22 10:55:49;;;;;;;8.20;2.85;;;;;;;24.86;95.90;102136.53;4974532;28;20529;-62
2023/08/22 10:58:43;;;;;;;9.00;3.53;;;;;;;24.64;97.08;102135.44;4983215;28;20033;-63
2023/08/22 11:01:15;;;;;;;7.07;2.70;;;;;;;24.69;97.21;102132.41;4976549;28;20145;-62
2023/08/22 11:03:42;;;;;;;10.40;3.20;;;;;;;24.81;98.38;102149.50;4976727;28;20026;-63
2023/08/22 11:06:17;;;;;;;8.68;3.25;;;;;;;24.98;96.47;102141.03;4970174;28;20087;-62
2023/08/22 11:08:43;;;;;;;7.32;2.85;;;;;;;25.07;95.40;102138.66;4979000;28;21182;-61